Time;durP1;ratioP1;P1;durP2;ratioP2;P2;SDS_P1;SDS_P2;PMS_P1;PMS_P2;Temp;Humidity;BMP_temperature;BMP_pressure;BME280_temperature;BME280_humidity;BME280_pressure;Samples;Min_cycle;Max_cycle;Signal;HPM_P1;HPM_P2
2021/12/20 00:01:42;;;;;;;29.55;11.65;;;;;;;4.98;100.00;102641.47;5074450;28;20513;-67
2021/12/20 00:04:07;;;;;;;27.20;10.90;;;;;;;4.95;100.00;102638.69;5074844;28;20062;-67
2021/12/20 00:06:33;;;;;;;28.42;11.57;;;;;;;4.95;100.00;102638.69;5073358;28;20032;-67
2021/12/20 00:08:58;;;;;;;28.92;11.00;;;;;;;4.95;100.00;102629.13;5073967;28;20475;-67
2021/12/20 00:11:23;;;;;;;33.67;10.57;;;;;;;4.92;100.00;102633.28;5074200;28;20025;-67
2021/12/20 00:13:49;;;;;;;28.15;10.98;;;;;;;4.93;100.00;102629.84;5074216;28;20364;-67
2021/12/20 00:16:14;;;;;;;27.67;10.98;;;;;;;4.94;100.00;102639.53;5074067;28;20021;-66
2021/12/20 00:18:42;;;;;;;29.40;10.52;;;;;;;4.95;100.00;102636.06;5074041;28;20028;-67
2021/12/20 00:21:07;;;;;;;25.67;9.77;;;;;;;4.95;100.00;102636.06;5074360;28;20028;-67
2021/12/20 00:23:33;;;;;;;27.23;10.20;;;;;;;4.93;100.00;102638.59;5073621;28;20028;-67
2021/12/20 00:25:58;;;;;;;25.60;8.95;;;;;;;4.94;100.00;102629.03;5073739;28;20020;-67
2021/12/20 00:28:23;;;;;;;29.20;9.60;;;;;;;4.94;100.00;102637.81;5073967;28;20031;-67
2021/12/20 00:30:49;;;;;;;24.48;9.38;;;;;;;4.91;100.00;102642.88;5073866;28;20021;-66
2021/12/20 00:33:15;;;;;;;26.35;9.60;;;;;;;4.88;100.00;102638.34;5073590;28;20497;-66
2021/12/20 00:35:40;;;;;;;26.25;8.93;;;;;;;4.89;100.00;102629.69;5073797;28;20028;-67
2021/12/20 00:40:50;;;;;;;29.58;8.45;;;;;;;4.96;100.00;102627.41;5072745;28;20518;-66
2021/12/20 00:43:16;;;;;;;26.45;6.68;;;;;;;4.89;100.00;102621.81;5073880;28;20029;-66
2021/12/20 00:45:41;;;;;;;23.92;6.90;;;;;;;4.91;100.00;102623.59;5073616;28;20024;-67
2021/12/20 00:48:07;;;;;;;23.77;7.03;;;;;;;4.94;100.00;102622.06;5073432;28;20020;-67
2021/12/20 00:50:33;;;;;;;25.70;7.20;;;;;;;4.92;100.00;102626.31;5073446;28;20094;-67
2021/12/20 00:52:59;;;;;;;26.15;6.68;;;;;;;4.90;100.00;102617.47;5073771;28;20032;-66
2021/12/20 00:55:27;;;;;;;24.75;6.55;;;;;;;4.91;100.00;102620.97;5073697;28;20025;-66
2021/12/20 00:57:54;;;;;;;27.25;7.22;;;;;;;4.92;100.00;102622.78;5073446;28;20025;-66
2021/12/20 01:00:26;;;;;;;25.05;6.85;;;;;;;4.91;100.00;102624.53;5073088;28;20379;-67
2021/12/20 01:02:52;;;;;;;24.80;6.32;;;;;;;4.92;100.00;102630.66;5073075;28;20422;-66
2021/12/20 01:05:19;;;;;;;23.90;6.47;;;;;;;4.88;100.00;102622.63;5073386;28;20025;-67
2021/12/20 01:07:45;;;;;;;26.85;6.65;;;;;;;4.85;100.00;102621.56;5073157;28;20055;-66
2021/12/20 01:10:11;;;;;;;27.40;6.80;;;;;;;4.86;100.00;102628.59;5073166;28;20108;-67
2021/12/20 01:12:47;;;;;;;25.05;6.05;;;;;;;4.85;100.00;102627.69;5072952;28;20016;-68
2021/12/20 01:15:21;;;;;;;24.35;5.97;;;;;;;4.84;100.00;102625.88;5073279;28;20024;-68
2021/12/20 01:17:48;;;;;;;24.38;5.88;;;;;;;4.83;100.00;102626.69;5073068;27;20028;-68
2021/12/20 01:20:14;;;;;;;24.20;5.80;;;;;;;4.82;100.00;102627.53;5073081;28;20016;-67
2021/12/20 01:22:47;;;;;;;26.80;5.03;;;;;;;4.80;100.00;102628.25;5072735;28;20395;-67
2021/12/20 01:25:14;;;;;;;24.33;4.82;;;;;;;4.76;100.00;102632.44;5072906;28;20506;-67
2021/12/20 01:27:39;;;;;;;28.38;5.15;;;;;;;4.77;100.00;102633.31;5072755;28;20412;-67
2021/12/20 01:30:07;;;;;;;26.00;4.72;;;;;;;4.79;100.00;102626.44;5073022;28;20042;-67
2021/12/20 01:32:33;;;;;;;28.98;5.07;;;;;;;4.80;100.00;102623.91;5072762;28;20062;-68
2021/12/20 01:34:58;;;;;;;26.17;4.90;;;;;;;4.77;100.00;102612.38;5072657;28;20056;-67
2021/12/20 01:37:23;;;;;;;25.50;4.97;;;;;;;4.81;100.00;102620.47;5072480;28;20430;-67
2021/12/20 01:39:49;;;;;;;26.45;5.03;;;;;;;4.80;100.00;102625.63;5072712;28;20058;-68
2021/12/20 01:42:19;;;;;;;28.75;5.22;;;;;;;4.79;100.00;102615.97;5072525;28;20036;-68
2021/12/20 01:44:46;;;;;;;26.40;4.80;;;;;;;4.78;100.00;102620.31;5072524;28;20077;-68
2021/12/20 01:47:13;;;;;;;25.42;4.80;;;;;;;4.78;100.00;102615.06;5072741;28;20031;-67
2021/12/20 01:49:51;;;;;;;26.67;4.85;;;;;;;4.77;100.00;102612.38;5072424;28;20033;-67
2021/12/20 01:52:20;;;;;;;27.48;5.40;;;;;;;4.77;100.00;102617.59;5072819;28;20348;-67
2021/12/20 01:54:45;;;;;;;26.52;4.90;;;;;;;4.77;100.00;102612.38;5071460;28;20024;-68
2021/12/20 01:57:11;;;;;;;32.00;5.18;;;;;;;4.77;100.00;102615.00;5072595;28;20027;-67
2021/12/20 01:59:39;;;;;;;28.23;5.05;;;;;;;4.75;100.00;102621.84;5072475;28;20033;-68
2021/12/20 02:02:05;;;;;;;28.27;5.45;;;;;;;4.76;100.00;102619.34;5072456;28;20029;-67
2021/12/20 02:04:31;;;;;;;27.63;5.10;;;;;;;4.74;100.00;102613.09;5072781;28;20115;-68
2021/12/20 02:06:57;;;;;;;28.15;4.53;;;;;;;4.71;100.00;102605.94;5072490;28;20028;-67
2021/12/20 02:09:22;;;;;;;31.45;5.70;;;;;;;4.70;100.00;102604.16;5072391;28;20040;-67
2021/12/20 02:11:49;;;;;;;29.65;5.25;;;;;;;4.70;100.00;102609.41;5072296;28;20020;-68
2021/12/20 02:14:16;;;;;;;28.02;4.68;;;;;;;4.69;100.00;102606.69;5072309;28;20357;-67
2021/12/20 02:16:43;;;;;;;26.92;4.85;;;;;;;4.72;100.00;102604.25;5072498;28;20021;-67
2021/12/20 02:19:12;;;;;;;27.30;4.70;;;;;;;4.69;100.00;102604.97;5072429;28;20074;-67
2021/12/20 02:21:37;;;;;;;27.13;4.80;;;;;;;4.72;100.00;102606.88;5072243;28;20020;-66
2021/12/20 02:24:03;;;;;;;27.70;4.65;;;;;;;4.69;100.00;102604.97;5072558;28;20051;-66
2021/12/20 02:26:29;;;;;;;28.83;4.43;;;;;;;4.72;100.00;102605.13;5072336;28;20357;-66
2021/12/20 02:28:57;;;;;;;27.25;4.75;;;;;;;4.69;100.00;102607.59;5072350;28;20055;-67
2021/12/20 02:37:00;;;;;;;30.23;5.47;;;;;;;4.64;100.00;102602.91;5069062;28;20098;-66
2021/12/20 02:39:25;;;;;;;28.90;4.72;;;;;;;4.62;100.00;102597.59;5072207;28;20024;-67
2021/12/20 02:41:51;;;;;;;27.85;4.60;;;;;;;4.66;100.00;102601.25;5071885;28;20107;-67
2021/12/20 02:44:21;;;;;;;31.00;5.13;;;;;;;4.61;100.00;102605.34;5072224;28;20108;-66
2021/12/20 02:47:04;;;;;;;27.52;4.70;;;;;;;4.63;100.00;102611.56;5072123;28;20028;-66
2021/12/20 02:49:31;;;;;;;31.15;4.80;;;;;;;4.61;100.00;102606.25;5072198;28;20028;-66
2021/12/20 02:52:03;;;;;;;27.55;4.70;;;;;;;4.59;100.00;102606.97;5071865;28;20103;-66
2021/12/20 02:54:28;;;;;;;29.20;4.95;;;;;;;4.55;100.00;102592.81;5067859;28;20032;-66
2021/12/20 02:56:53;;;;;;;29.45;4.80;;;;;;;4.56;100.00;102592.00;5070416;28;20037;-66
2021/12/20 02:59:19;;;;;;;29.67;4.70;;;;;;;4.56;100.00;102598.94;5070745;28;20471;-66
2021/12/20 03:01:49;;;;;;;28.83;4.63;;;;;;;4.57;100.00;102599.03;5075097;28;20023;-67
2021/12/20 03:04:15;;;;;;;30.45;4.63;;;;;;;4.58;100.00;102594.72;5075659;28;20035;-66
2021/12/20 03:06:56;;;;;;;27.35;4.70;;;;;;;4.61;100.00;102605.34;5075353;28;20534;-66
2021/12/20 03:09:31;;;;;;;30.15;4.80;;;;;;;4.59;100.00;102601.72;5075165;28;20094;-66
2021/12/20 03:11:59;;;;;;;29.17;4.78;;;;;;;4.59;100.00;102593.88;5075143;28;20025;-66
2021/12/20 03:14:31;;;;;;;28.98;4.97;;;;;;;4.55;100.00;102603.28;5075374;28;20455;-66
2021/12/20 03:16:58;;;;;;;28.83;4.80;;;;;;;4.55;100.00;102608.53;5075483;28;20025;-66
2021/12/20 03:19:24;;;;;;;29.55;4.82;;;;;;;4.55;100.00;102603.28;5075452;28;20267;-66
2021/12/20 03:21:50;;;;;;;29.63;5.03;;;;;;;4.54;100.00;102602.41;5075153;28;20078;-66
2021/12/20 03:24:15;;;;;;;27.45;4.47;;;;;;;4.57;100.00;102598.13;5074931;28;20421;-66
2021/12/20 03:26:41;;;;;;;29.30;4.97;;;;;;;4.57;100.00;102591.16;5075153;28;20033;-67
2021/12/20 03:29:06;;;;;;;29.50;4.72;;;;;;;4.53;100.00;102594.44;5075224;28;20028;-66
2021/12/20 03:31:32;;;;;;;28.55;4.88;;;;;;;4.56;100.00;102606.78;5075080;28;20387;-66
2021/12/20 03:33:57;;;;;;;27.02;4.57;;;;;;;4.53;100.00;102600.59;5075078;28;20081;-66
2021/12/20 03:36:23;;;;;;;29.50;5.13;;;;;;;4.51;100.00;102615.31;5074982;28;20035;-66
2021/12/20 03:38:48;;;;;;;26.08;4.65;;;;;;;4.50;100.00;102605.66;5074758;28;20028;-66
2021/12/20 03:41:14;;;;;;;28.50;4.85;;;;;;;4.50;100.00;102600.41;5074757;28;20035;-67
2021/12/20 03:43:39;;;;;;;31.65;5.35;;;;;;;4.48;100.00;102599.41;5075049;28;20469;-66
2021/12/20 03:46:05;;;;;;;29.05;4.70;;;;;;;4.51;100.00;102601.31;5074529;28;20533;-66
2021/12/20 03:48:32;;;;;;;26.65;4.43;;;;;;;4.50;100.00;102603.03;5074574;28;20085;-69
2021/12/20 03:51:01;;;;;;;29.30;4.90;;;;;;;4.46;100.00;102611.53;5075097;28;20024;-67
2021/12/20 03:53:28;;;;;;;31.13;5.18;;;;;;;4.45;100.00;102601.84;5074605;28;20123;-69
2021/12/20 03:55:54;;;;;;;27.73;4.70;;;;;;;4.46;100.00;102595.81;5074336;28;20099;-68
2021/12/20 03:58:20;;;;;;;30.48;4.78;;;;;;;4.42;100.00;102599.06;5074537;28;20029;-67
2021/12/20 04:00:46;;;;;;;27.15;4.72;;;;;;;4.46;100.00;102600.16;5074314;28;20099;-68
2021/12/20 04:03:13;;;;;;;27.02;4.85;;;;;;;4.47;100.00;102589.75;5074124;28;20538;-68
2021/12/20 04:05:40;;;;;;;28.80;5.30;;;;;;;4.45;100.00;102606.19;5074414;28;20024;-69
2021/12/20 04:08:06;;;;;;;30.25;5.63;;;;;;;4.44;100.00;102604.38;5074083;28;20565;-68
2021/12/20 04:10:32;;;;;;;26.58;4.72;;;;;;;4.41;100.00;102602.47;5074341;28;20025;-68
2021/12/20 04:12:57;;;;;;;29.05;5.15;;;;;;;4.43;100.00;102595.63;5073450;28;20472;-68
2021/12/20 04:15:22;;;;;;;28.25;5.20;;;;;;;4.42;100.00;102604.28;5074281;28;20029;-67
2021/12/20 04:17:48;;;;;;;29.38;5.45;;;;;;;4.40;100.00;102595.47;5074008;28;20025;-67
2021/12/20 04:20:13;;;;;;;27.02;4.90;;;;;;;4.41;100.00;102591.13;5074208;28;20016;-67
2021/12/20 04:22:40;;;;;;;28.38;4.60;;;;;;;4.40;100.00;102595.47;5073654;28;20105;-67
2021/12/20 04:25:06;;;;;;;29.83;5.40;;;;;;;4.38;100.00;102598.78;5073802;28;20465;-67
2021/12/20 04:27:31;;;;;;;27.55;4.80;;;;;;;4.38;100.00;102601.41;5073842;28;20082;-67
2021/12/20 04:29:57;;;;;;;28.80;5.10;;;;;;;4.39;100.00;102604.13;5074046;28;20077;-67
2021/12/20 04:32:22;;;;;;;32.67;5.68;;;;;;;4.39;100.00;102601.50;5073814;28;20383;-66
2021/12/20 04:34:48;;;;;;;30.05;4.88;;;;;;;4.40;100.00;102611.16;5073888;28;20029;-66
2021/12/20 04:37:14;;;;;;;29.00;5.07;;;;;;;4.41;100.00;102606.81;5073499;28;20031;-66
2021/12/20 04:39:39;;;;;;;28.55;5.00;;;;;;;4.37;100.00;102595.28;5073744;28;20029;-66
2021/12/20 04:42:05;;;;;;;27.02;4.88;;;;;;;4.36;100.00;102594.38;5073314;28;20013;-66
2021/12/20 04:44:31;;;;;;;32.83;5.60;;;;;;;4.37;100.00;102590.06;5073390;28;20498;-67
2021/12/20 04:46:56;;;;;;;28.67;4.80;;;;;;;4.35;100.00;102592.59;5073586;28;20025;-66
2021/12/20 04:49:24;;;;;;;32.42;5.40;;;;;;;4.38;100.00;102597.06;5073506;28;20054;-66
2021/12/20 04:51:54;;;;;;;28.98;5.18;;;;;;;4.39;100.00;102601.50;5072163;28;20040;-66
2021/12/20 04:54:20;;;;;;;32.47;5.50;;;;;;;4.37;100.00;102595.28;5073540;28;20020;-66
2021/12/20 04:56:45;;;;;;;33.13;5.50;;;;;;;4.38;100.00;102597.06;5073038;28;20058;-66
2021/12/20 04:59:11;;;;;;;29.60;5.22;;;;;;;4.36;100.00;102603.94;5073201;28;20035;-67
2021/12/20 05:01:37;;;;;;;27.80;4.90;;;;;;;4.34;100.00;102597.72;5073602;28;20043;-66
2021/12/20 05:04:02;;;;;;;28.02;4.75;;;;;;;4.38;100.00;102596.19;5073294;28;20070;-66
2021/12/20 05:06:31;;;;;;;30.33;4.95;;;;;;;4.35;100.00;102597.81;5073080;28;20021;-67
2021/12/20 05:08:56;;;;;;;28.02;5.22;;;;;;;4.32;100.00;102589.75;5073059;28;20040;-66
2021/12/20 05:11:23;;;;;;;29.90;4.93;;;;;;;4.35;100.00;102591.66;5072886;28;20486;-68
2021/12/20 05:13:48;;;;;;;30.98;5.25;;;;;;;4.32;100.00;102592.38;5073442;28;20369;-68
2021/12/20 05:16:14;;;;;;;29.60;5.18;;;;;;;4.33;100.00;102596.81;5073423;28;20027;-68
2021/12/20 05:18:39;;;;;;;30.35;5.55;;;;;;;4.32;100.00;102610.72;5072832;28;20033;-68
2021/12/20 05:21:04;;;;;;;28.63;5.75;;;;;;;4.32;100.00;102610.72;5072919;28;20110;-67
2021/12/20 05:23:30;;;;;;;33.20;6.10;;;;;;;4.32;100.00;102608.09;5068459;28;20034;-68
2021/12/20 05:25:55;;;;;;;28.73;5.13;;;;;;;4.30;100.00;102604.50;5072810;28;20054;-68
2021/12/20 05:28:21;;;;;;;28.20;5.10;;;;;;;4.29;100.00;102605.28;5072617;28;20473;-67
2021/12/20 05:30:50;;;;;;;32.30;5.22;;;;;;;4.29;100.00;102601.78;5073087;28;20031;-68
2021/12/20 05:33:15;;;;;;;30.63;4.97;;;;;;;4.27;100.00;102603.44;5072865;28;20028;-68
2021/12/20 05:35:41;;;;;;;28.05;5.03;;;;;;;4.28;100.00;102600.91;5072921;28;20024;-68
2021/12/20 05:38:06;;;;;;;32.00;5.35;;;;;;;4.26;100.00;102599.88;5072792;28;20039;-68
2021/12/20 05:40:32;;;;;;;28.98;5.25;;;;;;;4.27;100.00;102608.66;5072665;28;20023;-69
2021/12/20 05:42:57;;;;;;;32.35;5.55;;;;;;;4.29;100.00;102607.03;5072607;28;20056;-68
2021/12/20 05:45:23;;;;;;;30.40;4.90;;;;;;;4.25;100.00;102603.34;5072464;28;20028;-68
2021/12/20 05:47:49;;;;;;;27.60;4.60;;;;;;;4.25;100.00;102605.03;5072838;28;20032;-68
2021/12/20 05:50:17;;;;;;;29.73;4.95;;;;;;;4.27;100.00;102608.66;5072696;28;20411;-67
2021/12/20 05:52:42;;;;;;;27.58;5.05;;;;;;;4.27;100.00;102603.44;5072711;28;20391;-67
2021/12/20 05:55:08;;;;;;;27.63;4.80;;;;;;;4.29;100.00;102602.69;5072361;28;20020;-67
2021/12/20 05:57:35;;;;;;;29.80;5.03;;;;;;;4.28;100.00;102608.75;5072652;28;20387;-67
2021/12/20 06:00:02;;;;;;;30.65;5.45;;;;;;;4.28;100.00;102615.69;5068440;28;20025;-67
2021/12/20 06:02:27;;;;;;;30.60;4.82;;;;;;;4.29;100.00;102607.03;5072195;28;20476;-68
2021/12/20 06:04:52;;;;;;;28.60;5.30;;;;;;;4.30;100.00;102612.34;5072789;28;20036;-68
2021/12/20 06:07:19;;;;;;;27.08;5.05;;;;;;;4.30;100.00;102609.72;5072402;27;20078;-67
2021/12/20 06:09:45;;;;;;;28.65;5.20;;;;;;;4.27;100.00;102608.66;5072298;28;20032;-67
2021/12/20 06:12:10;;;;;;;27.52;4.97;;;;;;;4.28;100.00;102619.22;5072553;28;20048;-67
2021/12/20 06:14:36;;;;;;;29.52;5.40;;;;;;;4.24;100.00;102605.84;5072108;28;20020;-69
2021/12/20 06:17:02;;;;;;;26.88;4.70;;;;;;;4.26;100.00;102612.97;5072430;28;20028;-67
2021/12/20 06:19:27;;;;;;;31.48;5.75;;;;;;;4.26;100.00;102612.09;5072515;28;20031;-67
2021/12/20 06:21:54;;;;;;;28.95;4.85;;;;;;;4.24;100.00;102627.72;5072081;28;20020;-67
2021/12/20 06:24:19;;;;;;;29.00;5.22;;;;;;;4.25;100.00;102620.75;5067371;28;20044;-69
2021/12/20 06:26:45;;;;;;;33.58;5.85;;;;;;;4.26;100.00;102628.69;5069945;28;20017;-71
2021/12/20 06:29:10;;;;;;;33.28;12.88;;;;;;;4.24;100.00;102625.09;5069450;28;20731;-70
2021/12/20 06:31:35;;;;;;;31.52;5.70;;;;;;;4.24;100.00;102614.63;5069958;28;20031;-69
2021/12/20 06:34:01;;;;;;;30.08;5.10;;;;;;;4.22;100.00;102617.94;5070036;28;20020;-70
2021/12/20 06:36:29;;;;;;;32.22;5.60;;;;;;;4.23;100.00;102617.16;5072246;28;20031;-69
2021/12/20 06:38:56;;;;;;;27.35;5.10;;;;;;;4.22;100.00;102623.19;5072182;28;20017;-67
2021/12/20 06:41:21;;;;;;;31.60;5.68;;;;;;;4.21;100.00;102618.75;5071779;28;20035;-69
2021/12/20 06:43:47;;;;;;;29.02;4.90;;;;;;;4.18;100.00;102625.63;5073274;28;20024;-70
2021/12/20 06:46:15;;;;;;;34.85;5.65;;;;;;;4.17;100.00;102628.16;5073951;28;20028;-69
2021/12/20 06:48:40;;;;;;;29.85;5.35;;;;;;;4.17;100.00;102636.00;5070739;28;20108;-66
2021/12/20 06:51:05;;;;;;;30.38;5.97;;;;;;;4.16;100.00;102627.22;5070526;28;20029;-70
2021/12/20 06:53:31;;;;;;;33.15;5.60;;;;;;;4.15;100.00;102624.53;5072247;28;20395;-68
2021/12/20 06:55:56;;;;;;;32.10;5.55;;;;;;;4.13;100.00;102642.75;5073254;28;20029;-69
2021/12/20 06:58:23;;;;;;;29.60;5.70;;;;;;;4.14;100.00;102641.97;5073498;28;20082;-70
2021/12/20 07:00:50;;;;;;;30.00;5.50;;;;;;;4.15;100.00;102642.84;5072972;28;20509;-69
2021/12/20 07:03:15;;;;;;;30.48;6.25;;;;;;;4.16;100.00;102634.19;5072460;28;20089;-68
2021/12/20 07:05:41;;;;;;;29.10;5.40;;;;;;;4.16;100.00;102639.44;5073219;28;20079;-68
2021/12/20 07:08:06;;;;;;;28.25;5.00;;;;;;;4.14;100.00;102643.69;5073021;28;20068;-68
2021/12/20 07:10:32;;;;;;;31.75;5.60;;;;;;;4.10;100.00;102642.59;5072458;28;20031;-69
2021/12/20 07:12:57;;;;;;;29.30;5.28;;;;;;;4.11;100.00;102641.78;5071619;28;20130;-69
2021/12/20 07:15:24;;;;;;;28.98;5.38;;;;;;;4.10;100.00;102653.06;5072278;28;20021;-70
2021/12/20 07:17:50;;;;;;;29.10;5.32;;;;;;;4.08;100.00;102644.22;5072868;28;20033;-70
2021/12/20 07:20:15;;;;;;;29.38;5.40;;;;;;;4.08;100.00;102651.16;5073039;28;20028;-68
2021/12/20 07:22:40;;;;;;;27.98;4.90;;;;;;;4.07;100.00;102645.03;5073113;28;20491;-67
2021/12/20 07:25:06;;;;;;;28.67;5.43;;;;;;;4.09;100.00;102642.50;5071369;28;20071;-70
2021/12/20 07:27:32;;;;;;;27.02;5.07;;;;;;;4.10;100.00;102653.06;5072217;28;20386;-70
2021/12/20 07:29:58;;;;;;;33.15;6.30;;;;;;;4.09;100.00;102652.97;5072381;28;20058;-69
2021/12/20 07:32:23;;;;;;;28.65;5.72;;;;;;;4.10;100.00;102649.53;5072185;28;20036;-69
2021/12/20 07:34:48;;;;;;;32.35;6.40;;;;;;;4.12;100.00;102647.91;5072935;28;20024;-69
2021/12/20 07:37:14;;;;;;;29.35;6.22;;;;;;;4.11;100.00;102652.25;5072783;28;20522;-69
2021/12/20 07:39:39;;;;;;;31.55;6.07;;;;;;;4.12;100.00;102647.91;5071108;28;20029;-69
2021/12/20 07:42:07;;;;;;;31.52;6.30;;;;;;;4.12;100.00;102646.22;5071925;28;20108;-69
2021/12/20 07:44:32;;;;;;;30.83;6.13;;;;;;;4.12;100.00;102642.66;5072538;28;20414;-69
2021/12/20 07:46:57;;;;;;;31.52;6.57;;;;;;;4.10;100.00;102647.81;5072183;28;20025;-67
2021/12/20 07:49:23;;;;;;;31.63;6.43;;;;;;;4.13;100.00;102645.38;5072021;28;20115;-67
2021/12/20 07:51:51;;;;;;;32.55;6.30;;;;;;;4.12;100.00;102642.66;5072037;28;20060;-68
2021/12/20 07:54:17;;;;;;;28.63;5.75;;;;;;;4.10;100.00;102652.16;5071809;28;20496;-67
2021/12/20 07:56:42;;;;;;;29.95;5.78;;;;;;;4.09;100.00;102655.59;5072063;28;20107;-68
2021/12/20 07:59:08;;;;;;;35.38;6.40;;;;;;;4.11;100.00;102654.88;5073081;28;20028;-67
2021/12/20 08:01:34;;;;;;;31.70;6.18;;;;;;;4.10;100.00;102660.00;5074236;28;20379;-68
2021/12/20 08:04:00;;;;;;;31.10;6.18;;;;;;;4.14;100.00;102660.28;5073964;28;20119;-67
2021/12/20 08:06:25;;;;;;;30.83;6.20;;;;;;;4.10;100.00;102663.53;5073949;28;20097;-67
2021/12/20 08:08:51;;;;;;;29.67;6.55;;;;;;;4.15;100.00;102654.25;5073891;28;20044;-68
2021/12/20 08:11:16;;;;;;;32.00;6.82;;;;;;;4.18;100.00;102651.81;5074481;28;20020;-67
2021/12/20 08:13:44;;;;;;;30.85;6.15;;;;;;;4.19;100.00;102671.03;5073871;28;20054;-69
2021/12/20 08:16:21;;;;;;;28.45;6.22;;;;;;;4.23;100.00;102674.75;5073785;28;20463;-68
2021/12/20 08:18:47;;;;;;;28.95;6.00;;;;;;;4.24;100.00;102664.34;5074529;28;20038;-68
2021/12/20 08:21:14;;;;;;;28.75;5.65;;;;;;;4.23;100.00;102659.03;5074131;28;20472;-69
2021/12/20 08:23:40;;;;;;;31.00;6.38;;;;;;;4.24;100.00;102664.34;5073783;28;20081;-68
2021/12/20 08:26:07;;;;;;;30.98;6.45;;;;;;;4.27;100.00;102676.75;5073943;28;20021;-65
2021/12/20 08:28:35;;;;;;;27.13;5.63;;;;;;;4.28;100.00;102671.59;5073934;28;20059;-67
2021/12/20 08:31:01;;;;;;;33.15;6.13;;;;;;;4.27;100.00;102671.50;5073656;28;20548;-67
2021/12/20 08:33:27;;;;;;;30.27;5.90;;;;;;;4.32;100.00;102664.81;5073954;28;20021;-67
2021/12/20 08:35:53;;;;;;;29.27;5.55;;;;;;;4.35;100.00;102670.22;5073992;28;20375;-67
2021/12/20 08:38:19;;;;;;;29.88;6.25;;;;;;;4.35;100.00;102670.22;5073855;28;20477;-67
2021/12/20 08:40:46;;;;;;;29.45;6.07;;;;;;;4.41;100.00;102665.34;5073813;28;20032;-68
2021/12/20 08:43:11;;;;;;;30.27;6.95;;;;;;;4.42;100.00;102672.38;5073749;28;20078;-67
2021/12/20 08:45:37;;;;;;;28.55;6.03;;;;;;;4.48;100.00;102672.75;5073343;28;20029;-68
2021/12/20 08:48:02;;;;;;;29.42;5.55;;;;;;;4.52;100.00;102679.97;5073638;28;20115;-69
2021/12/20 08:50:28;;;;;;;30.70;5.90;;;;;;;4.54;100.00;102674.81;5073444;28;20025;-68
2021/12/20 08:52:54;;;;;;;28.33;5.65;;;;;;;4.57;100.00;102668.84;5073447;28;20107;-69
2021/12/20 08:55:20;;;;;;;29.23;6.15;;;;;;;4.64;100.00;102671.91;5073506;28;20056;-68
2021/12/20 08:57:46;;;;;;;26.48;5.40;;;;;;;4.66;100.00;102677.25;5072586;28;20060;-69
2021/12/20 09:00:19;;;;;;;34.90;5.80;;;;;;;4.73;100.00;102679.41;5073121;28;20063;-68
2021/12/20 09:02:45;;;;;;;28.17;6.10;;;;;;;4.77;100.00;102676.16;5073230;28;20116;-69
2021/12/20 09:05:10;;;;;;;32.05;6.55;;;;;;;4.79;100.00;102674.53;5073103;28;20111;-68
2021/12/20 09:07:36;;;;;;;29.02;5.75;;;;;;;4.85;100.00;102673.97;5073304;28;20048;-69
2021/12/20 09:10:04;;;;;;;25.92;5.75;;;;;;;4.89;100.00;102671.63;5073285;28;20020;-68
2021/12/20 09:12:29;;;;;;;29.83;6.35;;;;;;;5.00;100.00;102679.19;5072896;28;20059;-67
2021/12/20 09:14:55;;;;;;;27.83;6.80;;;;;;;5.01;100.00;102673.09;5072961;28;20056;-67
2021/12/20 09:17:20;;;;;;;27.25;6.55;;;;;;;5.03;100.00;102680.25;5073019;28;20020;-68
2021/12/20 09:19:45;;;;;;;26.30;5.97;;;;;;;5.07;100.00;102682.22;5072883;28;20021;-68
2021/12/20 09:22:11;;;;;;;24.25;4.72;;;;;;;5.10;98.42;102681.50;5072598;28;20024;-67
2021/12/20 09:24:38;;;;;;;26.55;5.18;;;;;;;5.10;100.00;102692.00;5072899;28;20043;-67
2021/12/20 09:27:04;;;;;;;26.38;5.30;;;;;;;5.14;99.98;102682.56;5073018;28;20028;-69
2021/12/20 09:29:30;;;;;;;30.42;5.35;;;;;;;5.14;100.00;102682.56;5071617;28;20377;-68
2021/12/20 09:31:56;;;;;;;25.73;5.15;;;;;;;5.19;98.52;102689.88;5072818;28;20024;-68
2021/12/20 09:34:22;;;;;;;29.05;5.35;;;;;;;5.20;99.47;102693.41;5072727;28;20028;-69
2021/12/20 09:36:47;;;;;;;26.48;5.32;;;;;;;5.23;97.85;102693.59;5072522;28;20020;-68
2021/12/20 09:39:15;;;;;;;26.52;5.30;;;;;;;5.23;96.47;102696.22;5072867;28;20026;-69
2021/12/20 09:44:08;;;;;;;31.25;5.97;;;;;;;5.30;99.45;102700.97;5072813;28;20463;-69
2021/12/20 09:46:34;;;;;;;28.13;5.85;;;;;;;5.33;99.15;102702.84;5072682;28;20490;-69
2021/12/20 09:49:00;;;;;;;28.63;5.70;;;;;;;5.34;96.32;102708.16;5068452;28;20033;-70
2021/12/20 09:51:26;;;;;;;28.15;6.00;;;;;;;5.34;99.45;102707.28;5072534;28;20032;-69
2021/12/20 09:53:55;;;;;;;26.75;5.40;;;;;;;5.36;99.03;102711.81;5072633;28;20445;-68
2021/12/20 09:56:23;;;;;;;29.02;5.75;;;;;;;5.44;99.16;102713.94;5072760;28;20107;-69
2021/12/20 09:58:52;;;;;;;30.52;5.70;;;;;;;5.43;98.07;102707.78;5072416;28;20021;-69
2021/12/20 10:01:19;;;;;;;27.75;5.40;;;;;;;5.50;98.88;102704.66;5072386;28;20116;-68
2021/12/20 10:03:45;;;;;;;28.85;5.95;;;;;;;5.52;100.00;102705.69;5072321;28;20058;-68
2021/12/20 10:06:10;;;;;;;28.38;5.53;;;;;;;5.55;100.00;102704.94;5072550;28;20025;-68
2021/12/20 10:08:38;;;;;;;26.60;5.45;;;;;;;5.59;100.00;102705.19;5072426;28;20484;-68
2021/12/20 10:11:16;;;;;;;27.95;5.45;;;;;;;5.67;96.14;102702.09;5075264;28;20032;-69
2021/12/20 10:13:41;;;;;;;26.02;5.32;;;;;;;5.72;96.77;102700.59;5073854;28;20090;-69
2021/12/20 10:16:16;;;;;;;24.55;5.07;;;;;;;5.76;96.79;102713.06;5076453;28;20024;-69
2021/12/20 10:18:41;;;;;;;25.67;5.03;;;;;;;5.80;95.71;102703.66;5076530;28;20103;-68
2021/12/20 10:21:06;;;;;;;26.88;5.43;;;;;;;5.80;93.71;102711.53;5076310;28;20150;-69
2021/12/20 10:23:39;;;;;;;24.33;5.10;;;;;;;5.80;95.37;102715.03;5076435;28;20064;-69
2021/12/20 10:26:21;;;;;;;28.83;5.65;;;;;;;5.87;97.48;102716.28;5072886;28;20021;-70
2021/12/20 10:28:49;;;;;;;26.40;5.77;;;;;;;5.75;96.81;102720.06;5074387;28;20114;-69
2021/12/20 10:31:20;;;;;;;26.73;5.97;;;;;;;5.76;97.17;102713.06;5076276;28;20032;-69
2021/12/20 10:34:00;;;;;;;26.33;5.25;;;;;;;5.82;98.13;102713.38;5076057;28;20111;-69
2021/12/20 10:36:26;;;;;;;26.08;5.20;;;;;;;5.84;97.69;102706.53;5075913;28;20036;-69
2021/12/20 10:38:57;;;;;;;27.42;5.70;;;;;;;5.86;98.50;102707.50;5076094;28;20390;-69
2021/12/20 10:41:38;;;;;;;28.08;5.75;;;;;;;5.90;97.51;102706.84;5075858;28;20024;-67
2021/12/20 10:44:17;;;;;;;27.38;5.82;;;;;;;5.90;94.99;102712.09;5075901;28;20032;-67
2021/12/20 10:46:52;;;;;;;28.90;6.25;;;;;;;5.89;96.91;102705.03;5073632;28;20036;-67
2021/12/20 10:49:19;;;;;;;28.63;5.50;;;;;;;5.95;95.92;102707.06;5075746;28;20446;-68
2021/12/20 10:51:49;;;;;;;28.52;5.82;;;;;;;5.96;94.48;102710.63;5075630;28;20028;-68
2021/12/20 10:54:19;;;;;;;27.20;5.78;;;;;;;6.05;95.87;102706.78;5075881;28;20037;-67
2021/12/20 10:56:50;;;;;;;26.27;5.88;;;;;;;6.07;94.15;102699.91;5075528;28;20021;-68
2021/12/20 10:59:16;;;;;;;26.90;5.80;;;;;;;6.09;95.14;102702.59;5075778;28;20375;-67
2021/12/20 11:04:33;;;;;;;26.05;6.32;;;;;;;6.18;95.39;102710.06;5075496;28;20086;-67
2021/12/20 11:09:45;;;;;;;26.05;5.70;;;;;;;6.14;93.64;102705.47;5071865;28;20106;-68
2021/12/20 11:12:16;;;;;;;27.15;5.70;;;;;;;6.10;93.88;102707.00;5075246;28;20127;-70
2021/12/20 11:14:43;;;;;;;27.40;5.57;;;;;;;6.19;94.11;102707.50;5075396;28;20028;-68
2021/12/20 11:17:12;;;;;;;32.28;5.75;;;;;;;6.16;93.34;102698.56;5075254;28;20036;-67
2021/12/20 11:19:41;;;;;;;28.02;5.97;;;;;;;6.16;94.16;102699.47;5075116;28;20031;-68
2021/12/20 11:22:22;;;;;;;26.80;5.18;;;;;;;6.21;94.91;102708.47;5074552;28;20027;-67
2021/12/20 11:24:57;;;;;;;27.05;5.40;;;;;;;6.22;93.24;102698.91;5074199;28;20083;-67
2021/12/20 11:27:25;;;;;;;27.13;5.63;;;;;;;6.27;93.26;102700.91;5075124;28;20451;-67
2021/12/20 11:29:54;;;;;;;28.60;5.75;;;;;;;6.32;91.34;102701.16;5074959;28;20016;-67
2021/12/20 11:32:22;;;;;;;28.23;5.30;;;;;;;6.38;93.26;102698.84;5074986;28;20090;-68
2021/12/20 11:34:48;;;;;;;27.95;5.68;;;;;;;6.47;93.46;102687.91;5073853;28;20383;-69